Time;durP1;ratioP1;P1;durP2;ratioP2;P2;SDS_P1;SDS_P2;PMS_P1;PMS_P2;Temp;Humidity;BMP_temperature;BMP_pressure;BME280_temperature;BME280_humidity;BME280_pressure;Samples;Min_cycle;Max_cycle;Signal;HPM_P1;HPM_P2
2023/04/20 00:01:01;;;;;;;9.30;7.95;;;;;;;8.57;67.34;99163.31;5067657;28;20049;-72
2023/04/20 00:03:28;;;;;;;9.35;8.45;;;;;;;8.57;67.29;99160.66;5067338;28;20041;-73
2023/04/20 00:05:55;;;;;;;9.10;7.95;;;;;;;8.58;67.15;99157.09;5066420;28;20037;-73
2023/04/20 00:08:21;;;;;;;8.93;7.60;;;;;;;8.55;67.27;99163.38;5067498;28;20328;-73
2023/04/20 00:10:48;;;;;;;9.90;8.50;;;;;;;8.57;67.36;99163.31;5067450;28;20091;-73
2023/04/20 00:13:16;;;;;;;8.50;7.60;;;;;;;8.57;67.16;99155.38;5067090;28;20212;-73
2023/04/20 00:15:43;;;;;;;9.20;8.05;;;;;;;8.54;67.21;99153.75;5067046;28;20049;-73
2023/04/20 00:18:10;;;;;;;10.90;9.75;;;;;;;8.56;67.26;99149.25;5067254;28;20041;-73
2023/04/20 00:20:37;;;;;;;9.32;8.35;;;;;;;7.92;67.35;99043.34;5066960;28;20323;-73
2023/04/20 00:23:04;;;;;;;10.45;9.30;;;;;;;7.92;67.16;99046.84;5066070;28;20037;-72
2023/04/20 00:25:31;;;;;;;10.40;9.40;;;;;;;8.56;67.31;99153.69;5066946;28;20037;-72
2023/04/20 00:27:58;;;;;;;9.63;8.02;;;;;;;7.77;67.33;99034.41;5066832;28;20033;-72
2023/04/20 00:30:26;;;;;;;10.57;9.05;;;;;;;8.53;67.30;99154.69;5067293;28;20289;-73
2023/04/20 00:32:53;;;;;;;8.82;7.93;;;;;;;8.50;67.17;99146.91;5067045;28;20044;-73
2023/04/20 00:35:19;;;;;;;10.80;8.45;;;;;;;8.48;67.10;99146.13;5066694;28;20051;-73
2023/04/20 00:37:46;;;;;;;9.05;8.15;;;;;;;8.47;67.13;99144.44;5066871;28;20071;-73
2023/04/20 00:40:13;;;;;;;10.25;8.30;;;;;;;8.45;66.96;99132.22;5066575;28;20374;-73
2023/04/20 00:42:40;;;;;;;9.98;8.60;;;;;;;8.44;67.08;99143.72;5066480;28;20044;-72
2023/04/20 00:45:08;;;;;;;8.80;7.75;;;;;;;8.43;67.02;99139.38;5066342;28;20183;-72
2023/04/20 00:47:36;;;;;;;9.35;8.32;;;;;;;8.42;66.93;99143.81;5065913;28;20037;-73
2023/04/20 00:50:03;;;;;;;9.85;8.40;;;;;;;8.44;66.76;99131.38;5066453;28;20040;-73
2023/04/20 00:52:31;;;;;;;10.38;9.15;;;;;;;8.43;66.64;99132.31;5066668;28;20047;-73
2023/04/20 00:54:58;;;;;;;9.57;8.57;;;;;;;8.42;66.65;99130.59;5066335;28;20293;-73
2023/04/20 00:57:26;;;;;;;10.57;9.10;;;;;;;8.41;66.47;99130.66;5066197;28;20079;-73
2023/04/20 00:59:53;;;;;;;9.35;8.32;;;;;;;8.41;66.34;99128.03;5065700;28;20123;-73
2023/04/20 01:02:19;;;;;;;10.60;8.18;;;;;;;8.41;66.26;99123.59;5066470;28;20045;-73
2023/04/20 01:04:48;;;;;;;9.70;8.35;;;;;;;7.50;66.07;98970.66;5065889;28;20041;-73
2023/04/20 01:07:14;;;;;;;8.77;7.80;;;;;;;8.38;66.05;99123.75;5066381;28;20278;-73
2023/04/20 01:09:41;;;;;;;9.55;8.00;;;;;;;8.38;65.88;99114.97;5065528;28;20224;-73
2023/04/20 01:12:10;;;;;;;9.50;8.20;;;;;;;7.82;65.97;99027.13;5065154;28;20037;-72
2023/04/20 01:14:36;;;;;;;9.45;7.82;;;;;;;8.32;65.63;99110.84;5066519;28;20044;-73
2023/04/20 01:17:04;;;;;;;8.52;7.63;;;;;;;8.32;65.75;99113.50;5065775;28;20297;-72
2023/04/20 01:19:32;;;;;;;9.77;7.75;;;;;;;8.32;65.34;99121.41;5066439;28;20051;-72
2023/04/20 01:22:00;;;;;;;8.13;7.25;;;;;;;8.29;65.44;99114.50;5066440;28;20048;-72
2023/04/20 01:24:28;;;;;;;10.07;8.40;;;;;;;8.29;65.25;99116.28;5065804;28;20285;-72
2023/04/20 01:26:55;;;;;;;8.45;7.35;;;;;;;8.11;65.25;99096.09;5065995;28;20053;-72
2023/04/20 01:29:21;;;;;;;7.95;6.97;;;;;;;8.27;65.29;99123.44;5066017;28;20048;-72
2023/04/20 01:31:48;;;;;;;9.10;7.78;;;;;;;7.94;65.20;99060.81;5064895;28;20340;-72
2023/04/20 01:34:16;;;;;;;7.40;6.60;;;;;;;8.29;65.13;99121.56;5065890;28;20071;-72
2023/04/20 01:36:43;;;;;;;9.10;7.75;;;;;;;5.31;64.75;98623.88;5065990;28;20070;-72
2023/04/20 01:39:10;;;;;;;8.48;7.38;;;;;;;7.91;64.97;99060.97;5064679;28;20037;-72
2023/04/20 01:41:38;;;;;;;9.63;7.50;;;;;;;8.27;64.89;99115.50;5066088;28;20040;-72
2023/04/20 01:44:05;;;;;;;9.40;8.38;;;;;;;8.26;64.96;99112.03;5064498;28;20107;-72
2023/04/20 01:46:32;;;;;;;8.63;7.47;;;;;;;8.26;64.90;99113.81;5065792;28;20091;-71
2023/04/20 01:48:58;;;;;;;8.65;7.68;;;;;;;8.26;64.70;99117.31;5065434;28;20029;-71
2023/04/20 01:51:25;;;;;;;8.35;7.50;;;;;;;8.23;64.88;99114.81;5065707;28;20118;-70
2023/04/20 01:53:51;;;;;;;9.57;7.85;;;;;;;8.23;64.86;99119.22;5065300;28;20047;-71
2023/04/20 01:56:18;;;;;;;8.88;7.35;;;;;;;8.21;64.82;99113.19;5065671;28;20041;-71
2023/04/20 01:58:46;;;;;;;8.75;7.38;;;;;;;8.19;64.89;99112.41;5064433;28;20037;-71
2023/04/20 02:01:13;;;;;;;9.15;7.50;;;;;;;7.68;64.85;99024.31;5065598;28;20052;-72
2023/04/20 02:03:40;;;;;;;9.05;7.57;;;;;;;8.20;64.71;99106.19;5065638;28;20033;-72
2023/04/20 02:06:06;;;;;;;10.27;8.77;;;;;;;7.96;65.09;99074.78;5065570;28;20045;-71
2023/04/20 02:08:34;;;;;;;7.90;6.88;;;;;;;7.63;64.91;99037.72;5065263;28;20047;-71
2023/04/20 02:11:00;;;;;;;9.10;7.78;;;;;;;8.13;64.88;99110.91;5065534;28;20319;-71
2023/04/20 02:13:27;;;;;;;8.55;7.10;;;;;;;7.90;64.97;99071.59;5065512;28;20053;-71
2023/04/20 02:15:55;;;;;;;10.65;8.02;;;;;;;8.12;64.88;99113.63;5065771;28;20045;-72
2023/04/20 02:18:23;;;;;;;9.30;7.72;;;;;;;8.11;64.88;99117.19;5065369;28;20087;-72
2023/04/20 02:20:50;;;;;;;9.73;8.32;;;;;;;8.09;65.14;99106.72;5065196;28;20317;-71
2023/04/20 02:23:17;;;;;;;8.75;7.70;;;;;;;8.07;65.06;99107.72;5065434;28;20300;-71
2023/04/20 02:25:43;;;;;;;8.57;7.65;;;;;;;7.84;65.16;99070.09;5065630;28;20037;-72
2023/04/20 02:28:10;;;;;;;9.18;7.75;;;;;;;8.05;65.24;99106.94;5065448;28;20247;-72
2023/04/20 02:30:37;;;;;;;8.77;7.88;;;;;;;8.02;65.27;99103.53;5065584;28;20041;-72
2023/04/20 02:33:05;;;;;;;9.93;8.25;;;;;;;8.01;65.29;99093.91;5065612;28;20045;-72
2023/04/20 02:35:32;;;;;;;9.25;8.35;;;;;;;8.02;65.21;99095.59;5065552;28;20297;-72
2023/04/20 02:37:59;;;;;;;11.20;9.45;;;;;;;8.03;65.11;99091.19;5064970;28;20204;-72
2023/04/20 02:40:25;;;;;;;10.35;9.15;;;;;;;8.01;65.08;99088.63;5064997;28;20041;-72
2023/04/20 02:42:52;;;;;;;9.90;7.75;;;;;;;8.02;65.04;99082.41;5064080;28;20049;-72
2023/04/20 02:45:19;;;;;;;10.52;8.65;;;;;;;8.01;65.03;99090.41;5065475;28;20044;-72
2023/04/20 02:47:46;;;;;;;10.30;9.05;;;;;;;8.00;64.98;99089.53;5064930;28;20040;-72
2023/04/20 02:50:14;;;;;;;11.05;9.15;;;;;;;7.97;64.98;99094.97;5065159;28;20053;-72
2023/04/20 02:52:41;;;;;;;9.55;8.27;;;;;;;7.96;65.11;99092.41;5065128;28;20068;-72
2023/04/20 02:55:08;;;;;;;10.40;9.38;;;;;;;7.78;65.07;99057.22;5065159;28;20083;-72
2023/04/20 02:57:35;;;;;;;10.15;9.13;;;;;;;7.96;65.07;99084.50;5064847;28;20044;-72
2023/04/20 03:00:02;;;;;;;11.45;9.10;;;;;;;7.94;65.02;99087.19;5064808;28;20281;-72
2023/04/20 03:02:29;;;;;;;10.10;9.02;;;;;;;7.94;65.07;99097.75;5065082;28;20193;-72
2023/04/20 03:04:55;;;;;;;9.50;8.50;;;;;;;7.93;64.95;99092.56;5065172;28;20048;-72
2023/04/20 03:07:23;;;;;;;11.48;10.27;;;;;;;7.77;65.11;99070.47;5066956;28;20064;-72
2023/04/20 03:09:50;;;;;;;11.27;9.32;;;;;;;7.90;65.09;99092.69;5068681;28;20289;-72
2023/04/20 03:12:17;;;;;;;10.60;9.50;;;;;;;7.89;65.10;99101.53;5068843;28;20103;-72
2023/04/20 03:14:44;;;;;;;12.00;9.60;;;;;;;7.89;65.09;99098.91;5068496;28;20309;-72
2023/04/20 03:17:11;;;;;;;11.20;10.00;;;;;;;7.84;65.14;99104.41;5068508;28;20080;-72
2023/04/20 03:19:37;;;;;;;11.30;10.10;;;;;;;7.82;65.25;99097.50;5068055;28;20051;-72
2023/04/20 03:22:04;;;;;;;14.32;11.32;;;;;;;7.84;65.20;99095.63;5068114;28;20045;-72
2023/04/20 03:24:32;;;;;;;12.55;10.90;;;;;;;7.83;65.15;99097.41;5068350;28;20108;-72
2023/04/20 03:26:59;;;;;;;10.60;9.57;;;;;;;7.83;65.13;99099.22;5068272;28;20052;-72
2023/04/20 03:29:26;;;;;;;10.75;9.65;;;;;;;7.82;65.11;99094.84;5067948;28;20040;-72
2023/04/20 03:31:53;;;;;;;12.05;10.85;;;;;;;7.59;65.08;99064.31;5068464;28;20044;-73
2023/04/20 03:34:19;;;;;;;13.02;11.38;;;;;;;7.59;65.15;99061.66;5068089;28;20200;-72
2023/04/20 03:36:46;;;;;;;12.15;10.85;;;;;;;7.77;65.29;99092.44;5067740;28;20037;-72
2023/04/20 03:39:13;;;;;;;12.13;10.80;;;;;;;7.73;65.34;99097.94;5067953;28;20099;-72
2023/04/20 03:41:41;;;;;;;12.10;10.80;;;;;;;7.70;65.50;99104.22;5068177;28;20044;-72
2023/04/20 03:44:08;;;;;;;13.82;11.85;;;;;;;7.69;65.31;99102.50;5067526;28;20049;-73
2023/04/20 03:46:35;;;;;;;10.50;9.40;;;;;;;7.69;65.49;99102.50;5067915;28;20041;-73
2023/04/20 03:49:02;;;;;;;13.00;11.65;;;;;;;7.11;65.39;99006.78;5067882;28;20064;-73
2023/04/20 03:51:28;;;;;;;12.50;10.73;;;;;;;7.52;65.51;99082.19;5068062;28;20053;-73
2023/04/20 03:53:55;;;;;;;12.00;10.15;;;;;;;7.62;65.55;99091.38;5067504;28;20068;-73
2023/04/20 03:56:22;;;;;;;11.35;10.20;;;;;;;7.62;65.49;99107.22;5067524;28;20315;-73
2023/04/20 03:58:50;;;;;;;11.95;10.73;;;;;;;7.55;65.57;99100.50;5066502;28;20036;-72
2023/04/20 04:01:17;;;;;;;12.95;10.75;;;;;;;7.05;65.57;99021.13;5066675;28;20379;-73
2023/04/20 04:03:43;;;;;;;15.30;11.73;;;;;;;7.59;65.63;99117.06;5067344;28;20045;-72
2023/04/20 04:06:10;;;;;;;13.82;11.90;;;;;;;7.55;65.80;99118.97;5067543;28;20212;-72
2023/04/20 04:08:37;;;;;;;13.23;11.50;;;;;;;7.55;66.48;99112.84;5067763;28;20056;-73
2023/04/20 04:11:04;;;;;;;13.25;11.85;;;;;;;7.37;66.26;99081.13;5067177;28;20041;-71
2023/04/20 04:13:31;;;;;;;14.88;12.10;;;;;;;7.35;66.09;99068.94;5066869;28;20047;-71
2023/04/20 04:15:59;;;;;;;12.30;11.10;;;;;;;7.56;66.12;99106.66;5067350;28;20044;-71
2023/04/20 04:18:31;;;;;;;13.18;11.77;;;;;;;7.53;66.19;99104.16;5066808;28;20108;-72
2023/04/20 04:20:57;;;;;;;13.13;11.48;;;;;;;7.55;66.14;99107.56;5066957;28;20056;-72
2023/04/20 04:23:25;;;;;;;14.40;12.38;;;;;;;7.55;66.14;99110.22;5066083;28;20037;-71
2023/04/20 04:25:51;;;;;;;15.65;13.18;;;;;;;7.55;66.10;99107.56;5067191;28;20115;-71
2023/04/20 04:28:18;;;;;;;15.52;11.88;;;;;;;7.54;66.16;99101.44;5066838;28;20288;-72
2023/04/20 04:30:46;;;;;;;13.07;11.60;;;;;;;7.18;66.09;99043.34;5065947;28;20032;-72
2023/04/20 04:33:14;;;;;;;15.57;12.40;;;;;;;7.54;66.12;99111.13;5066800;28;20111;-72
2023/04/20 04:35:42;;;;;;;15.88;13.13;;;;;;;7.53;66.31;99112.91;5066681;28;20045;-72
2023/04/20 04:38:09;;;;;;;14.05;12.65;;;;;;;7.54;66.22;99117.25;5067096;28;20319;-72
2023/04/20 04:40:36;;;;;;;16.25;14.43;;;;;;;7.55;66.28;99115.47;5066512;28;20045;-72
2023/04/20 04:43:03;;;;;;;15.98;14.27;;;;;;;7.56;66.26;99117.19;5066296;28;20053;-72
2023/04/20 04:45:30;;;;;;;17.05;15.07;;;;;;;7.47;66.29;99102.66;5066798;28;20103;-71
2023/04/20 04:47:57;;;;;;;15.02;13.43;;;;;;;7.56;66.23;99114.56;5066703;28;20052;-72
2023/04/20 04:50:26;;;;;;;15.48;13.88;;;;;;;7.15;66.28;99058.44;5066408;28;20064;-72
2023/04/20 04:52:53;;;;;;;17.45;14.57;;;;;;;7.54;66.47;99119.03;5066653;28;20248;-72
2023/04/20 04:55:20;;;;;;;15.57;13.73;;;;;;;7.55;66.23;99128.66;5066610;28;20123;-73
2023/04/20 04:57:46;;;;;;;17.60;14.27;;;;;;;7.54;66.44;99125.19;5066519;28;20037;-72
2023/04/20 05:00:14;;;;;;;19.30;15.35;;;;;;;7.31;66.35;99088.44;5065223;28;20078;-72
2023/04/20 05:02:41;;;;;;;16.75;14.88;;;;;;;7.56;66.58;99127.75;5066257;28;20235;-72
2023/04/20 05:05:08;;;;;;;16.35;14.18;;;;;;;7.55;66.55;99131.31;5066290;28;20041;-73
2023/04/20 05:07:37;;;;;;;15.77;13.90;;;;;;;7.35;66.52;99101.44;5065163;28;20335;-73
2023/04/20 05:10:04;;;;;;;16.70;14.70;;;;;;;7.56;66.57;99135.66;5066521;28;20100;-73
2023/04/20 05:12:31;;;;;;;17.65;15.32;;;;;;;7.55;66.61;99141.84;5065860;28;20064;-72
2023/04/20 05:14:57;;;;;;;16.48;14.77;;;;;;;7.56;66.60;99140.94;5066211;28;20045;-72
2023/04/20 05:17:24;;;;;;;16.83;14.13;;;;;;;7.58;66.62;99133.81;5066168;28;20117;-73
2023/04/20 05:19:51;;;;;;;17.30;14.55;;;;;;;7.59;66.53;99138.16;5066303;28;20043;-73
2023/04/20 05:22:17;;;;;;;16.70;14.93;;;;;;;7.60;66.52;99140.72;5066060;28;20060;-73
2023/04/20 05:24:46;;;;;;;20.95;17.33;;;;;;;7.60;66.55;99137.22;5065702;28;20045;-73
2023/04/20 05:27:12;;;;;;;17.13;14.68;;;;;;;7.43;66.49;99103.72;5065687;28;20297;-73
2023/04/20 05:29:39;;;;;;;16.95;15.00;;;;;;;7.62;66.60;99135.38;5065492;28;20048;-72
2023/04/20 05:32:06;;;;;;;16.38;14.60;;;;;;;7.52;66.38;99124.38;5065813;28;20284;-72
2023/04/20 05:34:32;;;;;;;16.73;14.05;;;;;;;7.64;66.32;99142.28;5065950;28;20293;-73
2023/04/20 05:36:59;;;;;;;16.50;14.23;;;;;;;7.65;66.31;99145.78;5066043;28;20075;-73
2023/04/20 05:39:26;;;;;;;15.98;14.18;;;;;;;7.66;66.53;99145.69;5065719;28;20040;-73
2023/04/20 05:41:54;;;;;;;16.70;13.93;;;;;;;7.65;66.58;99145.78;5065915;28;20229;-73
2023/04/20 05:44:21;;;;;;;17.67;15.23;;;;;;;7.65;66.58;99149.28;5065372;28;20044;-73
2023/04/20 05:46:49;;;;;;;17.05;15.18;;;;;;;7.66;66.54;99145.69;5065397;28;20049;-73
2023/04/20 05:49:15;;;;;;;17.00;14.80;;;;;;;7.46;66.46;99108.00;5065638;28;20075;-71
2023/04/20 05:51:42;;;;;;;16.42;14.55;;;;;;;7.64;66.66;99150.19;5065355;28;20052;-72
2023/04/20 05:54:09;;;;;;;16.23;14.02;;;;;;;7.65;66.63;99158.97;5065310;28;20090;-72
2023/04/20 05:56:36;;;;;;;16.58;14.40;;;;;;;7.67;66.63;99149.19;5065533;28;20040;-72
2023/04/20 05:59:05;;;;;;;21.08;15.70;;;;;;;7.47;66.54;99118.47;5065522;28;20037;-72
2023/04/20 06:01:31;;;;;;;16.77;14.68;;;;;;;7.66;66.63;99158.91;5065594;28;20108;-72
2023/04/20 06:03:58;;;;;;;18.45;15.68;;;;;;;7.67;66.67;99155.31;5065179;28;20044;-71
2023/04/20 06:06:25;;;;;;;17.95;15.43;;;;;;;7.70;66.79;99151.69;5065773;28;20041;-72
2023/04/20 06:08:52;;;;;;;17.77;15.65;;;;;;;7.71;66.77;99148.13;5065842;28;20052;-72
2023/04/20 06:11:18;;;;;;;20.00;16.05;;;;;;;7.72;66.80;99152.47;5064330;28;20102;-72
2023/04/20 06:13:45;;;;;;;17.67;15.63;;;;;;;7.73;66.78;99146.28;5064762;28;20037;-72
2023/04/20 06:16:13;;;;;;;17.98;15.25;;;;;;;7.76;66.87;99147.91;5064260;28;20045;-72
2023/04/20 06:18:40;;;;;;;17.67;14.95;;;;;;;7.77;66.86;99147.84;5065362;28;20041;-72
2023/04/20 06:21:09;;;;;;;18.63;15.18;;;;;;;7.79;66.85;99140.72;5065740;28;20199;-72
2023/04/20 06:23:36;;;;;;;17.73;15.27;;;;;;;7.83;66.67;99137.00;5065011;28;20079;-72
2023/04/20 06:26:03;;;;;;;15.85;14.18;;;;;;;7.84;66.81;99138.72;5065130;28;20116;-71
2023/04/20 06:28:30;;;;;;;17.23;15.43;;;;;;;7.86;66.59;99136.84;5064767;28;20036;-72
2023/04/20 06:30:56;;;;;;;19.27;15.82;;;;;;;7.89;66.78;99146.41;5064481;28;20059;-72
2023/04/20 06:33:24;;;;;;;18.83;16.52;;;;;;;7.90;66.67;99138.41;5065279;28;20065;-71
2023/04/20 06:35:53;;;;;;;18.33;15.27;;;;;;;7.90;66.74;99138.41;5065287;28;20051;-71
2023/04/20 06:38:20;;;;;;;16.67;13.80;;;;;;;7.90;66.71;99134.91;5065201;28;20069;-71
2023/04/20 06:40:46;;;;;;;16.88;14.13;;;;;;;7.92;66.53;99151.53;5066881;28;20036;-71
2023/04/20 06:43:13;;;;;;;16.98;13.90;;;;;;;7.96;66.41;99146.03;5068419;28;20228;-73
2023/04/20 06:45:40;;;;;;;17.10;14.68;;;;;;;7.77;66.11;99120.59;5068772;28;20053;-73
2023/04/20 06:48:07;;;;;;;17.17;14.13;;;;;;;7.83;66.49;99115.03;5068667;28;20293;-72
2023/04/20 06:50:35;;;;;;;16.92;14.30;;;;;;;8.00;66.45;99144.97;5069113;28;20037;-73
2023/04/20 06:53:03;;;;;;;16.48;14.57;;;;;;;8.03;66.32;99139.53;5068560;28;20049;-72
2023/04/20 06:55:30;;;;;;;16.58;14.80;;;;;;;8.08;66.35;99135.81;5068519;28;20068;-73
2023/04/20 06:57:57;;;;;;;19.63;16.35;;;;;;;8.07;66.32;99137.59;5069069;28;20041;-73
2023/04/20 07:00:26;;;;;;;17.63;14.15;;;;;;;8.10;66.32;99145.38;5069040;28;20044;-72
2023/04/20 07:02:53;;;;;;;15.75;13.73;;;;;;;8.11;66.30;99141.81;5068480;28;20037;-73
2023/04/20 07:05:19;;;;;;;16.02;14.32;;;;;;;8.15;66.30;99142.50;5068223;28;20091;-73
2023/04/20 07:07:47;;;;;;;16.77;13.30;;;;;;;8.12;66.27;99126.81;5068887;28;20055;-73
2023/04/20 07:10:15;;;;;;;16.10;13.77;;;;;;;8.20;66.20;99141.34;5068277;28;20082;-72
2023/04/20 07:12:43;;;;;;;16.98;14.77;;;;;;;7.98;65.91;99109.88;5068694;28;20052;-73
2023/04/20 07:15:10;;;;;;;16.17;14.25;;;;;;;8.21;65.97;99152.78;5068522;28;20060;-72
2023/04/20 07:17:36;;;;;;;18.17;15.15;;;;;;;8.23;65.92;99162.34;5068157;28;20037;-72
2023/04/20 07:20:07;;;;;;;16.88;15.05;;;;;;;8.08;65.94;99136.69;5068440;28;20242;-73
2023/04/20 07:22:33;;;;;;;17.00;15.18;;;;;;;8.31;65.73;99156.69;5068280;28;20047;-73
2023/04/20 07:25:02;;;;;;;19.10;16.67;;;;;;;8.16;65.77;99120.47;5068527;28;20041;-72
2023/04/20 07:27:29;;;;;;;19.08;15.48;;;;;;;8.38;65.86;99157.22;5068333;28;20167;-73
2023/04/20 07:29:56;;;;;;;16.65;14.95;;;;;;;7.85;65.57;99082.38;5067812;28;20348;-73
2023/04/20 07:32:23;;;;;;;18.63;14.40;;;;;;;8.43;65.60;99158.72;5068117;28;20033;-73
2023/04/20 07:34:50;;;;;;;17.77;15.82;;;;;;;8.48;65.70;99155.84;5068067;28;20041;-73
2023/04/20 07:37:16;;;;;;;19.13;14.77;;;;;;;8.51;65.71;99153.91;5067668;28;20053;-73
2023/04/20 07:39:43;;;;;;;16.08;14.38;;;;;;;8.58;65.64;99160.59;5067649;28;20037;-73
2023/04/20 07:42:11;;;;;;;19.42;16.63;;;;;;;8.63;65.37;99155.94;5067613;28;20086;-72
2023/04/20 07:44:38;;;;;;;15.88;14.20;;;;;;;8.69;65.31;99146.84;5067226;28;20068;-72
2023/04/20 07:47:04;;;;;;;18.60;15.00;;;;;;;8.37;64.99;99098.28;5067594;28;20040;-73
2023/04/20 07:49:31;;;;;;;17.85;15.70;;;;;;;8.55;64.94;99130.84;5067810;28;20095;-73
2023/04/20 07:51:58;;;;;;;19.88;15.45;;;;;;;8.81;64.75;99164.72;5066682;28;20045;-73
2023/04/20 07:54:24;;;;;;;18.00;16.10;;;;;;;8.85;64.94;99165.41;5067375;28;20041;-73
2023/04/20 07:56:52;;;;;;;19.20;16.80;;;;;;;8.88;64.71;99178.47;5067886;28;20075;-72
2023/04/20 07:59:20;;;;;;;19.58;17.55;;;;;;;8.90;64.81;99173.97;5067530;28;20045;-73
2023/04/20 08:01:47;;;;;;;17.05;14.85;;;;;;;8.90;64.54;99176.59;5067858;28;20108;-73
2023/04/20 08:04:13;;;;;;;20.67;17.90;;;;;;;8.54;64.49;99116.78;5067692;28;20044;-72
2023/04/20 08:06:40;;;;;;;18.38;15.80;;;;;;;8.94;64.31;99172.88;5067061;28;20099;-73
2023/04/20 08:09:07;;;;;;;15.88;14.18;;;;;;;8.96;64.34;99171.00;5067536;28;20041;-73
2023/04/20 08:11:33;;;;;;;18.63;15.57;;;;;;;8.99;64.37;99161.13;5067164;28;20032;-72
2023/04/20 08:14:00;;;;;;;16.70;14.13;;;;;;;9.06;64.03;99164.31;5067242;28;20037;-72
2023/04/20 08:16:28;;;;;;;17.17;14.88;;;;;;;9.11;64.07;99170.22;5067305;28;20045;-72
2023/04/20 08:18:55;;;;;;;17.60;15.73;;;;;;;9.19;63.99;99168.03;5066852;28;20041;-73
2023/04/20 08:21:22;;;;;;;17.33;15.32;;;;;;;9.29;63.75;99164.00;5066071;28;20297;-73
2023/04/20 08:23:49;;;;;;;17.30;14.93;;;;;;;8.85;63.60;99075.56;5066877;28;20045;-73
2023/04/20 08:26:16;;;;;;;19.98;16.95;;;;;;;9.19;63.32;99104.56;5066851;28;20197;-73
2023/04/20 08:28:43;;;;;;;17.52;15.55;;;;;;;9.63;63.16;99164.84;5067323;28;20060;-73
2023/04/20 08:31:10;;;;;;;17.65;15.10;;;;;;;9.56;62.95;99126.44;5066931;28;20037;-73
2023/04/20 08:33:38;;;;;;;17.48;15.68;;;;;;;9.79;62.95;99156.94;5067216;28;20090;-73
2023/04/20 08:36:05;;;;;;;19.08;15.77;;;;;;;9.82;62.63;99168.22;5066963;28;20040;-73
2023/04/20 08:38:31;;;;;;;16.58;14.65;;;;;;;9.87;62.64;99154.72;5066568;28;20029;-73
2023/04/20 08:40:58;;;;;;;16.55;14.02;;;;;;;9.97;62.42;99149.75;5066171;28;20170;-73
2023/04/20 08:43:25;;;;;;;18.08;15.02;;;;;;;10.15;61.84;99152.22;5066287;28;20075;-73
2023/04/20 08:45:57;;;;;;;17.27;15.15;;;;;;;10.39;61.64;99149.97;5066557;28;20052;-72
2023/04/20 08:48:25;;;;;;;15.77;14.00;;;;;;;10.66;61.26;99158.13;5065789;28;20189;-73
2023/04/20 08:50:54;;;;;;;15.75;14.15;;;;;;;10.90;60.31;99153.19;5066576;28;20040;-73
2023/04/20 08:53:21;;;;;;;16.73;15.00;;;;;;;11.13;59.86;99152.66;5066201;28;20103;-73
2023/04/20 08:55:49;;;;;;;18.25;16.30;;;;;;;11.21;59.27;99155.72;5065511;28;20079;-73
2023/04/20 08:58:17;;;;;;;16.88;15.18;;;;;;;10.99;59.44;99096.97;5066043;28;20041;-73
2023/04/20 09:00:47;;;;;;;17.55;15.10;;;;;;;11.52;58.52;99143.22;5065142;28;20041;-72
2023/04/20 09:03:14;;;;;;;15.98;14.07;;;;;;;11.74;58.90;99140.91;5066309;28;20045;-73
2023/04/20 09:05:40;;;;;;;17.92;15.88;;;;;;;12.01;58.16;99138.34;5066325;28;20106;-72
2023/04/20 09:08:09;;;;;;;16.02;14.07;;;;;;;12.22;57.64;99128.16;5066167;28;20058;-73
2023/04/20 09:10:41;;;;;;;19.35;14.90;;;;;;;12.40;56.48;99126.94;5066193;28;20032;-73
2023/04/20 09:13:07;;;;;;;18.02;15.13;;;;;;;12.23;57.07;99076.72;5065869;28;20048;-72
2023/04/20 09:15:34;;;;;;;17.83;14.73;;;;;;;12.39;56.44;99026.91;5066480;28;20037;-73
2023/04/20 09:18:13;;;;;;;17.73;15.82;;;;;;;13.19;54.48;99094.06;5064958;28;20036;-73
2023/04/20 09:20:40;;;;;;;17.20;14.80;;;;;;;13.63;55.41;99122.91;5064723;28;20045;-73
2023/04/20 09:23:15;;;;;;;15.90;14.30;;;;;;;13.63;53.56;99066.13;5066141;28;20048;-72
2023/04/20 09:25:45;;;;;;;18.33;16.38;;;;;;;14.18;54.01;99112.72;5065738;28;20116;-73
2023/04/20 09:28:13;;;;;;;18.73;15.07;;;;;;;13.67;53.51;98991.25;5065373;28;20040;-73
2023/04/20 09:30:41;;;;;;;16.20;13.63;;;;;;;14.59;53.35;99107.00;5065241;28;20288;-73
2023/04/20 09:33:10;;;;;;;15.88;13.80;;;;;;;14.85;53.14;99111.25;5065714;28;20052;-73
2023/04/20 09:35:39;;;;;;;15.07;13.48;;;;;;;15.07;52.44;99111.28;5066217;28;20189;-73
2023/04/20 09:38:06;;;;;;;15.18;13.63;;;;;;;15.07;52.17;99103.28;5064624;28;20049;-73
2023/04/20 09:40:35;;;;;;;15.23;13.63;;;;;;;15.06;52.16;99104.25;5065446;28;20249;-73
2023/04/20 09:43:05;;;;;;;16.15;14.48;;;;;;;15.08;52.24;99099.63;5065191;28;20112;-73
2023/04/20 09:45:32;;;;;;;16.63;14.25;;;;;;;15.21;52.51;99101.34;5065295;28;20032;-73
2023/04/20 09:48:01;;;;;;;15.93;14.23;;;;;;;15.31;51.84;99097.84;5065101;28;20056;-73
2023/04/20 09:50:28;;;;;;;14.85;13.25;;;;;;;15.32;51.96;99104.88;5065320;28;20048;-73
2023/04/20 09:52:56;;;;;;;14.20;12.77;;;;;;;15.32;52.05;99098.69;5065435;28;20098;-73
2023/04/20 09:55:25;;;;;;;16.80;14.48;;;;;;;15.38;52.38;99088.38;5065498;28;20045;-73
2023/04/20 09:57:54;;;;;;;15.23;12.90;;;;;;;15.55;51.65;99087.03;5065544;28;20048;-74
2023/04/20 10:00:22;;;;;;;15.48;13.85;;;;;;;15.72;51.32;99085.72;5065455;28;20049;-73
2023/04/20 10:02:49;;;;;;;16.88;13.93;;;;;;;15.74;51.13;99049.03;5065154;28;20048;-73
2023/04/20 10:05:16;;;;;;;16.42;14.45;;;;;;;16.03;50.92;99073.38;5065045;28;20041;-73
2023/04/20 10:07:43;;;;;;;14.75;13.25;;;;;;;16.23;50.05;99082.44;5065002;28;20048;-73
2023/04/20 10:10:12;;;;;;;15.40;13.55;;;;;;;16.31;49.92;99077.31;5065191;28;20051;-74
2023/04/20 10:12:49;;;;;;;15.90;13.68;;;;;;;16.36;46.96;99075.09;5065110;28;20037;-73
2023/04/20 10:15:18;;;;;;;14.63;13.07;;;;;;;16.28;49.63;99072.22;5065637;28;20059;-73
2023/04/20 10:17:45;;;;;;;15.18;13.57;;;;;;;16.38;50.01;99080.31;5069628;28;20048;-73
2023/04/20 10:20:23;;;;;;;15.00;13.38;;;;;;;16.30;46.89;99071.09;5069097;28;20037;-73
2023/04/20 10:22:51;;;;;;;16.40;13.63;;;;;;;15.17;50.08;98886.34;5069231;28;20045;-73
2023/04/20 10:25:21;;;;;;;15.57;13.88;;;;;;;16.30;49.69;99076.47;5068757;28;20043;-73
2023/04/20 10:27:55;;;;;;;14.05;12.52;;;;;;;16.33;47.94;99073.53;5068798;28;20049;-74
2023/04/20 10:30:24;;;;;;;;;;;;;;;16.29;46.86;99069.41;5069668;28;20129;-73
2023/04/20 10:33:03;;;;;;;13.27;11.98;;;;;;;16.30;47.55;99068.44;5068954;28;19959;-73
2023/04/20 10:35:29;;;;;;;13.27;11.85;;;;;;;16.03;50.43;99009.22;5069093;28;20055;-73
2023/04/20 10:37:56;;;;;;;14.65;13.10;;;;;;;16.24;49.85;99060.06;5068990;28;20110;-73
2023/04/20 10:40:25;;;;;;;13.45;12.13;;;;;;;16.12;49.98;99064.59;5067934;28;20059;-73
2023/04/20 10:42:52;;;;;;;16.45;14.70;;;;;;;16.19;50.16;99059.59;5069160;28;20351;-73
2023/04/20 10:45:20;;;;;;;15.60;12.43;;;;;;;16.17;49.89;99024.13;5068397;28;20057;-74
2023/04/20 10:47:48;;;;;;;16.02;11.80;;;;;;;16.16;49.27;98995.69;5068386;28;20055;-73
2023/04/20 10:50:16;;;;;;;14.32;12.43;;;;;;;16.49;49.03;99016.06;5069070;28;20056;-73
2023/04/20 10:52:44;;;;;;;14.65;13.05;;;;;;;16.68;49.00;99041.16;5068754;28;20045;-73
2023/04/20 10:55:21;;;;;;;14.00;11.35;;;;;;;16.52;47.05;98997.94;5068393;28;20048;-73
2023/04/20 10:57:49;;;;;;;13.52;12.13;;;;;;;16.27;49.06;98967.06;5068581;28;20041;-73
2023/04/20 11:00:17;;;;;;;15.93;12.65;;;;;;;16.83;48.67;99036.31;5068195;28;20100;-73
2023/04/20 11:02:53;;;;;;;13.93;11.73;;;;;;;16.93;46.00;99025.69;5068613;28;20037;-73
2023/04/20 11:05:21;;;;;;;12.30;10.57;;;;;;;16.89;48.15;99027.75;5068336;28;20071;-74
2023/04/20 11:07:51;;;;;;;13.27;11.25;;;;;;;16.80;48.06;99023.22;5068517;28;20086;-72
2023/04/20 11:10:18;;;;;;;13.52;10.80;;;;;;;16.79;48.67;99018.84;5068147;28;20041;-73
2023/04/20 11:12:45;;;;;;;13.48;12.07;;;;;;;16.85;48.68;99012.09;5068172;28;20108;-74
2023/04/20 11:15:12;;;;;;;12.52;11.00;;;;;;;16.96;48.22;99017.38;5068367;28;20051;-73
2023/04/20 11:17:39;;;;;;;13.60;12.20;;;;;;;17.06;47.76;99004.88;5068022;28;20116;-74
2023/04/20 11:20:11;;;;;;;12.82;10.80;;;;;;;16.98;46.41;99008.22;5068175;28;20040;-74
2023/04/20 11:22:38;;;;;;;15.10;12.07;;;;;;;16.74;47.21;98980.91;5067872;28;20041;-74
2023/04/20 11:25:06;;;;;;;13.43;12.02;;;;;;;16.95;47.80;99008.50;5068165;28;20230;-73
2023/04/20 11:27:33;;;;;;;12.15;10.88;;;;;;;16.97;47.75;99011.88;5067062;28;20040;-73